Time;durP1;ratioP1;P1;durP2;ratioP2;P2;SDS_P1;SDS_P2;PMS_P1;PMS_P2;Temp;Humidity;BMP_temperature;BMP_pressure;BME280_temperature;BME280_humidity;BME280_pressure;Samples;Min_cycle;Max_cycle;Signal;HPM_P1;HPM_P2
2022/01/18 00:00:10;;;;;;;49.33;25.08;;;;;;;5.56;100.00;101387.34;5075203;28;20193;-83
2022/01/18 00:02:39;;;;;;;52.25;25.77;;;;;;;5.51;100.00;101383.84;5075002;28;20196;-82
2022/01/18 00:05:07;;;;;;;45.38;25.17;;;;;;;5.42;100.00;101384.81;5074600;28;20224;-82
2022/01/18 00:07:34;;;;;;;44.13;23.15;;;;;;;5.55;100.00;101373.13;5075157;28;20660;-83
2022/01/18 00:10:00;;;;;;;46.63;24.13;;;;;;;5.39;100.00;101377.72;5074845;28;20276;-82
2022/01/18 00:12:53;;;;;;;56.83;27.10;;;;;;;5.48;100.00;101374.06;5070799;28;20699;-82
2022/01/18 00:15:36;;;;;;;52.95;26.55;;;;;;;5.23;100.00;101368.94;5074746;28;20205;-82
2022/01/18 00:18:08;;;;;;;52.20;24.55;;;;;;;5.46;100.00;101362.50;5074603;28;20580;-82
2022/01/18 00:20:48;;;;;;;48.42;26.08;;;;;;;5.42;100.00;101358.09;5074001;28;20204;-82
2022/01/18 00:23:15;;;;;;;50.17;25.55;;;;;;;5.42;100.00;101368.78;5074632;28;20181;-82
2022/01/18 00:25:45;;;;;;;56.95;26.85;;;;;;;5.47;100.00;101358.03;5074760;28;20221;-83
2022/01/18 00:28:12;;;;;;;50.60;26.38;;;;;;;5.46;100.00;101359.84;5074637;28;20284;-82
2022/01/18 00:31:07;;;;;;;54.88;26.60;;;;;;;5.35;100.00;101365.28;5074242;28;20189;-82
2022/01/18 00:33:49;;;;;;;53.03;26.17;;;;;;;5.63;100.00;101367.69;5074365;28;20291;-82
2022/01/18 00:36:26;;;;;;;51.85;25.00;;;;;;;5.55;100.00;101356.19;5066927;28;20181;-82
2022/01/18 00:38:52;;;;;;;52.47;24.25;;;;;;;5.43;100.00;101352.75;5073979;28;20267;-82
2022/01/18 00:41:21;;;;;;;49.28;24.80;;;;;;;5.41;100.00;101356.34;5074420;28;20695;-82
2022/01/18 00:43:48;;;;;;;47.35;26.48;;;;;;;5.51;100.00;101360.66;5071757;28;20189;-82
2022/01/18 00:46:17;;;;;;;49.63;25.45;;;;;;;5.61;100.00;101366.84;5074401;28;20193;-84
2022/01/18 00:48:44;;;;;;;48.92;24.83;;;;;;;5.51;100.00;101357.13;5074328;28;20265;-82
2022/01/18 00:51:13;;;;;;;49.85;26.27;;;;;;;5.56;100.00;101361.53;5074007;28;20221;-83
2022/01/18 00:53:42;;;;;;;49.97;24.13;;;;;;;5.43;100.00;101357.22;5072904;28;20292;-83
2022/01/18 00:56:19;;;;;;;52.03;26.48;;;;;;;5.37;100.00;101355.47;5066274;28;20233;-82
2022/01/18 00:58:47;;;;;;;52.97;24.52;;;;;;;5.55;100.00;101356.19;5073605;28;20248;-82
2022/01/18 01:01:17;;;;;;;59.97;27.20;;;;;;;5.41;100.00;101359.00;5074279;28;20567;-82
2022/01/18 01:03:44;;;;;;;52.38;25.95;;;;;;;5.60;100.00;101357.91;5074215;28;20189;-82
2022/01/18 01:06:11;;;;;;;52.58;26.15;;;;;;;5.49;100.00;101358.91;5074294;28;20272;-82
2022/01/18 01:08:38;;;;;;;63.28;26.15;;;;;;;5.46;100.00;101353.63;5073680;28;20200;-82
2022/01/18 01:11:07;;;;;;;46.60;26.98;;;;;;;5.60;100.00;101355.25;5065964;28;20662;-82
2022/01/18 01:13:37;;;;;;;56.60;27.08;;;;;;;5.48;100.00;101352.69;5071393;28;20217;-82
2022/01/18 01:16:17;;;;;;;49.30;26.73;;;;;;;5.73;100.00;101357.81;5066394;28;20654;-82
2022/01/18 01:19:01;;;;;;;51.45;26.65;;;;;;;6.00;100.00;101368.25;5073519;28;20673;-82
2022/01/18 01:33:04;;;;;;;50.00;25.90;;;;;;;5.99;100.00;101371.84;5073111;28;20255;-82
2022/01/18 01:35:41;;;;;;;46.67;24.50;;;;;;;6.33;100.00;101376.78;5073018;28;20201;-82
2022/01/18 01:43:49;;;;;;;48.95;25.80;;;;;;;6.42;100.00;101376.66;5067426;28;20289;-82
2022/01/18 01:46:17;;;;;;;53.65;25.33;;;;;;;6.13;100.00;101378.78;5073389;28;20208;-82
2022/01/18 01:48:45;;;;;;;54.33;26.23;;;;;;;6.08;100.00;101381.50;5072680;28;20201;-82
2022/01/18 01:51:13;;;;;;;48.35;26.60;;;;;;;6.16;100.00;101378.78;5073507;28;20194;-82
2022/01/18 01:53:40;;;;;;;50.45;26.15;;;;;;;6.19;100.00;101381.41;5072664;28;20333;-82
2022/01/18 01:56:07;;;;;;;51.47;26.15;;;;;;;6.15;100.00;101377.88;5073521;28;20201;-81
2022/01/18 01:58:33;;;;;;;51.13;25.67;;;;;;;5.88;100.00;101378.13;5072604;28;20340;-82
2022/01/18 02:01:05;;;;;;;53.40;25.80;;;;;;;5.95;100.00;101386.13;5073001;28;20191;-82
2022/01/18 02:03:32;;;;;;;50.45;25.42;;;;;;;5.97;100.00;101389.69;5072227;28;20186;-82
2022/01/18 02:05:59;;;;;;;50.65;25.55;;;;;;;5.80;100.00;101386.25;5072453;28;20286;-82
2022/01/18 02:08:28;;;;;;;55.25;27.15;;;;;;;5.96;100.00;101377.19;5072369;28;20285;-82
2022/01/18 02:10:55;;;;;;;53.03;25.25;;;;;;;6.09;100.00;101377.94;5072677;28;20212;-82
2022/01/18 02:13:21;;;;;;;48.80;25.35;;;;;;;5.93;100.00;101366.50;5070991;28;20227;-82
2022/01/18 02:16:11;;;;;;;55.20;26.30;;;;;;;5.80;100.00;101364.88;5072433;28;20731;-82
2022/01/18 02:24:08;;;;;;;57.80;27.77;;;;;;;5.51;100.00;101349.97;5072525;28;20199;-82
2022/01/18 02:26:36;;;;;;;49.70;26.67;;;;;;;5.53;100.00;101350.84;5072312;28;20208;-82
2022/01/18 02:29:05;;;;;;;48.05;24.95;;;;;;;5.63;100.00;101354.31;5072654;28;20270;-82
2022/01/18 02:31:32;;;;;;;55.95;25.70;;;;;;;5.74;100.00;101355.09;5071878;28;20212;-82
2022/01/18 02:34:03;;;;;;;57.78;25.67;;;;;;;5.93;100.00;101350.47;5072128;28;20249;-82
2022/01/18 02:36:32;;;;;;;47.53;25.63;;;;;;;6.18;100.00;101350.22;5072165;28;20625;-82
2022/01/18 02:38:59;;;;;;;47.88;24.20;;;;;;;6.22;100.00;101341.25;5072252;28;20197;-82
2022/01/18 02:41:30;;;;;;;48.20;24.40;;;;;;;6.08;100.00;101349.41;5071795;28;20290;-82
2022/01/18 02:43:58;;;;;;;63.22;25.77;;;;;;;6.30;100.00;101346.50;5069764;28;20633;-82
2022/01/18 02:46:25;;;;;;;48.03;23.85;;;;;;;6.42;100.00;101344.56;5070459;28;20202;-82
2022/01/18 02:48:51;;;;;;;48.17;24.17;;;;;;;6.25;100.00;101346.56;5072217;28;20273;-82
2022/01/18 02:51:18;;;;;;;45.13;24.52;;;;;;;6.17;100.00;101333.28;5071811;28;20198;-82
2022/01/18 02:54:00;;;;;;;41.95;23.90;;;;;;;6.37;100.00;101327.66;5068200;28;20271;-82
2022/01/18 02:56:28;;;;;;;47.88;24.80;;;;;;;6.19;100.00;101335.94;5071215;28;20237;-81
2022/01/18 02:59:03;;;;;;;54.78;24.65;;;;;;;5.93;100.00;101345.13;5071677;28;20218;-82
2022/01/18 03:04:15;;;;;;;42.58;21.85;;;;;;;6.04;100.00;101342.34;5071469;28;20196;-83
2022/01/18 03:06:41;;;;;;;44.97;22.90;;;;;;;5.85;100.00;101344.31;5072053;28;20267;-82
2022/01/18 03:09:09;;;;;;;37.65;21.73;;;;;;;5.74;100.00;101348.88;5071840;28;20201;-82
2022/01/18 03:11:36;;;;;;;40.20;20.88;;;;;;;5.94;100.00;101341.56;5071771;28;20627;-82
2022/01/18 03:14:03;;;;;;;38.22;20.88;;;;;;;5.84;100.00;101347.91;5071417;28;20657;-82
2022/01/18 03:16:30;;;;;;;39.22;19.75;;;;;;;5.76;100.00;101345.28;5063607;28;20279;-83
2022/01/18 03:18:57;;;;;;;40.35;21.20;;;;;;;5.50;100.00;101340.22;5071403;28;20274;-83
2022/01/18 03:21:23;;;;;;;38.20;20.52;;;;;;;5.55;100.00;101349.06;5071718;28;20193;-82
2022/01/18 03:23:54;;;;;;;41.90;21.40;;;;;;;5.48;100.00;101352.69;5071918;28;20271;-82
2022/01/18 03:26:31;;;;;;;39.38;20.73;;;;;;;5.79;100.00;101358.63;5071400;28;20574;-82
2022/01/18 03:28:57;;;;;;;38.10;20.42;;;;;;;5.66;100.00;101354.31;5071417;28;20189;-82
2022/01/18 03:31:24;;;;;;;40.13;20.13;;;;;;;5.66;100.00;101361.44;5071539;28;20196;-83
2022/01/18 03:33:51;;;;;;;39.55;20.73;;;;;;;5.78;100.00;101362.19;5071401;28;20469;-82
2022/01/18 03:36:17;;;;;;;36.42;20.13;;;;;;;5.73;100.00;101360.47;5071316;28;20247;-83
2022/01/18 03:38:44;;;;;;;40.20;19.05;;;;;;;5.75;100.00;101362.25;5071212;28;20716;-83
2022/01/18 03:41:11;;;;;;;38.85;20.05;;;;;;;5.85;100.00;101353.19;5071180;28;20198;-82
2022/01/18 03:43:41;;;;;;;43.25;20.48;;;;;;;6.00;100.00;101351.31;5071353;28;20280;-83
2022/01/18 03:46:10;;;;;;;37.65;21.23;;;;;;;5.71;100.00;101357.81;5068915;28;20193;-83
2022/01/18 03:48:38;;;;;;;42.70;20.10;;;;;;;5.50;100.00;101352.69;5071503;28;20190;-82
2022/01/18 03:51:08;;;;;;;36.47;18.92;;;;;;;5.45;100.00;101350.06;5071111;28;20547;-82
2022/01/18 03:53:35;;;;;;;35.25;19.00;;;;;;;5.46;100.00;101350.94;5071019;28;20745;-83
2022/01/18 03:56:03;;;;;;;44.88;21.23;;;;;;;5.54;100.00;101358.00;5071620;28;20275;-82
2022/01/18 03:58:30;;;;;;;41.92;19.45;;;;;;;5.59;100.00;101355.28;5058232;28;20328;-82
2022/01/18 04:00:58;;;;;;;44.20;19.90;;;;;;;5.36;100.00;101355.47;5068106;28;20237;-83
2022/01/18 04:03:25;;;;;;;36.65;20.95;;;;;;;5.56;100.00;101357.97;5071459;28;20199;-82
2022/01/18 04:05:52;;;;;;;37.38;19.92;;;;;;;5.61;100.00;101362.38;5070683;28;20199;-82
2022/01/18 04:08:20;;;;;;;43.80;20.20;;;;;;;5.47;100.00;101363.38;5071412;28;20567;-82
2022/01/18 04:10:46;;;;;;;40.92;21.50;;;;;;;5.61;100.00;101365.03;5070768;28;20198;-82
2022/01/18 04:13:13;;;;;;;39.00;21.33;;;;;;;5.73;100.00;101374.72;5063457;28;20252;-82
2022/01/18 04:15:41;;;;;;;45.15;22.15;;;;;;;5.53;100.00;101372.25;5065226;28;20201;-82
2022/01/18 04:18:21;;;;;;;47.05;21.50;;;;;;;5.57;100.00;101375.78;5070897;28;20221;-82
2022/01/18 04:29:01;;;;;;;47.30;23.13;;;;;;;5.65;100.00;101368.56;5071386;28;20617;-82
2022/01/18 04:31:29;;;;;;;44.65;24.10;;;;;;;5.62;100.00;101373.94;5074639;28;20293;-82
2022/01/18 04:33:57;;;;;;;43.70;23.77;;;;;;;5.59;100.00;101376.66;5074253;28;20213;-82
2022/01/18 04:36:26;;;;;;;57.30;23.95;;;;;;;5.58;100.00;101381.09;5074602;28;20220;-83
2022/01/18 04:38:53;;;;;;;51.38;24.38;;;;;;;5.72;100.00;101366.72;5074317;28;20201;-83
2022/01/18 04:41:26;;;;;;;54.22;23.52;;;;;;;5.66;100.00;101370.34;5074810;28;20311;-83
2022/01/18 04:44:07;;;;;;;49.80;24.05;;;;;;;5.73;100.00;101380.06;5074119;28;20190;-82
2022/01/18 04:49:20;;;;;;;51.17;24.67;;;;;;;5.47;100.00;101377.63;5070455;28;20220;-82
2022/01/18 04:51:47;;;;;;;47.92;22.45;;;;;;;5.51;100.00;101374.03;5074460;28;20296;-83
2022/01/18 04:54:15;;;;;;;49.38;22.58;;;;;;;5.37;100.00;101378.63;5074153;28;20288;-82
2022/01/18 04:59:26;;;;;;;55.08;25.85;;;;;;;5.64;100.00;101380.16;5074378;28;20185;-83
2022/01/18 05:01:55;;;;;;;55.33;23.88;;;;;;;5.64;100.00;101383.72;5074313;28;20277;-83
2022/01/18 05:04:23;;;;;;;40.95;21.65;;;;;;;5.43;100.00;101382.13;5074400;28;20662;-83
2022/01/18 05:06:52;;;;;;;47.55;22.33;;;;;;;5.52;100.00;101381.16;5074067;28;20279;-83
2022/01/18 05:09:18;;;;;;;49.95;22.00;;;;;;;5.47;100.00;101382.97;5074326;28;20269;-82
2022/01/18 05:11:57;;;;;;;43.53;21.40;;;;;;;5.38;100.00;101388.41;5074019;28;20186;-82
2022/01/18 05:14:30;;;;;;;47.85;22.58;;;;;;;5.51;100.00;101383.84;5073728;28;20221;-82
2022/01/18 05:17:04;;;;;;;49.60;23.48;;;;;;;5.48;100.00;101379.41;5063990;28;20543;-82
2022/01/18 05:19:43;;;;;;;53.17;24.33;;;;;;;5.61;100.00;101382.88;5054125;28;20185;-82
2022/01/18 05:24:54;;;;;;;47.80;24.75;;;;;;;5.71;100.00;101402.38;5053662;28;20316;-82
2022/01/18 05:27:21;;;;;;;50.78;24.30;;;;;;;5.76;100.00;101401.41;5053444;28;20222;-82
2022/01/18 05:29:48;;;;;;;48.95;23.52;;;;;;;5.69;100.00;101398.81;5053422;28;20241;-82
2022/01/18 05:32:14;;;;;;;40.58;23.45;;;;;;;5.42;100.00;101399.03;5053975;28;20199;-82
2022/01/18 05:34:45;;;;;;;44.97;21.52;;;;;;;5.34;100.00;101398.25;5053639;28;20210;-83
2022/01/18 05:37:12;;;;;;;54.85;24.50;;;;;;;5.31;100.00;101406.25;5053591;28;20195;-83
2022/01/18 05:39:39;;;;;;;46.72;23.60;;;;;;;5.31;100.00;101413.38;5053535;28;20604;-83
2022/01/18 05:42:06;;;;;;;46.40;21.80;;;;;;;5.31;100.00;101408.03;5053780;28;20205;-83
2022/01/18 05:44:33;;;;;;;48.15;22.92;;;;;;;5.44;100.00;101407.94;5053393;28;20198;-83
2022/01/18 05:46:59;;;;;;;48.97;23.75;;;;;;;5.48;100.00;101405.25;5053347;28;20298;-83
2022/01/18 05:49:26;;;;;;;49.53;24.83;;;;;;;5.48;100.00;101415.94;5053649;28;20593;-84
2022/01/18 05:51:54;;;;;;;45.70;24.63;;;;;;;5.71;100.00;101411.28;5053368;28;20651;-84
2022/01/18 05:54:21;;;;;;;47.28;21.05;;;;;;;5.74;100.00;101418.38;5053427;28;20228;-84
2022/01/18 05:56:47;;;;;;;44.25;22.50;;;;;;;5.93;100.00;101421.78;5053083;28;20287;-83
2022/01/18 05:59:21;;;;;;;44.13;23.67;;;;;;;5.88;100.00;101412.88;5067951;28;20284;-83
2022/01/18 06:01:49;;;;;;;47.90;23.15;;;;;;;5.69;100.00;101412.19;5073157;28;20629;-83
2022/01/18 06:06:50;;;;;;;44.75;22.75;;;;;;;5.48;100.00;101416.81;5073346;28;20190;-82
2022/01/18 06:07:05;;;;;;;44.15;22.17;;;;;;;5.72;100.00;101413.06;5073328;28;20339;-82
2022/01/18 06:09:32;;;;;;;47.78;24.45;;;;;;;5.67;100.00;101411.31;5073081;28;20198;-83
2022/01/18 06:11:59;;;;;;;42.55;23.73;;;;;;;5.64;100.00;101407.78;5073247;28;20206;-83
2022/01/18 06:14:25;;;;;;;42.95;21.67;;;;;;;5.61;100.00;101405.13;5072847;28;20231;-83
2022/01/18 06:16:52;;;;;;;43.08;22.50;;;;;;;5.63;100.00;101408.69;5072422;28;20201;-84
2022/01/18 06:19:19;;;;;;;42.90;21.83;;;;;;;5.68;100.00;101405.09;5072696;28;21025;-84
2022/01/18 06:21:45;;;;;;;45.60;23.23;;;;;;;5.65;100.00;101408.66;5072930;28;20236;-83
2022/01/18 06:24:13;;;;;;;48.40;24.38;;;;;;;5.70;100.00;101414.88;5073107;28;20513;-82
2022/01/18 06:26:42;;;;;;;46.13;23.40;;;;;;;5.72;100.00;101409.47;5073035;28;20937;-82
2022/01/18 06:29:09;;;;;;;41.95;22.95;;;;;;;5.82;100.00;101409.38;5073043;28;20558;-83
2022/01/18 06:31:35;;;;;;;42.08;21.15;;;;;;;5.97;100.00;101404.81;5073448;28;20295;-81
2022/01/18 06:34:02;;;;;;;44.00;22.33;;;;;;;5.81;100.00;101409.38;5073060;28;20316;-83
2022/01/18 06:36:28;;;;;;;51.00;22.83;;;;;;;5.96;100.00;101414.63;5073181;28;20213;-83
2022/01/18 06:38:55;;;;;;;44.35;21.75;;;;;;;5.99;100.00;101419.06;5073128;28;20223;-83
2022/01/18 06:41:23;;;;;;;43.25;21.80;;;;;;;6.12;100.00;101425.16;5072990;28;20962;-83
2022/01/18 06:43:50;;;;;;;34.50;19.60;;;;;;;6.14;100.00;101423.38;5071867;28;20205;-81
2022/01/18 06:46:17;;;;;;;36.28;19.40;;;;;;;6.17;100.00;101423.31;5070125;28;20620;-81
2022/01/18 06:48:44;;;;;;;39.33;19.27;;;;;;;6.14;100.00;101420.69;5052337;28;20215;-81
2022/01/18 06:51:12;;;;;;;35.10;19.02;;;;;;;6.21;100.00;101417.03;5074048;28;20264;-81
2022/01/18 06:53:44;;;;;;;33.40;19.33;;;;;;;6.13;100.00;101416.22;5071832;28;20197;-79
2022/01/18 06:56:11;;;;;;;34.53;20.13;;;;;;;6.00;100.00;101421.72;5084401;28;20200;-78
2022/01/18 06:58:40;;;;;;;40.42;22.25;;;;;;;6.15;100.00;101417.09;5064717;28;20234;-82
2022/01/18 07:01:06;;;;;;;34.22;20.33;;;;;;;5.94;100.00;101421.78;5054573;28;20208;-80
2022/01/18 07:03:33;;;;;;;35.25;21.40;;;;;;;5.80;100.00;101418.31;5071295;28;20225;-79
2022/01/18 07:05:59;;;;;;;36.78;20.58;;;;;;;5.78;100.00;101428.16;5071022;28;20190;-80
2022/01/18 07:08:26;;;;;;;35.90;20.48;;;;;;;5.65;100.00;101427.34;5072008;28;20228;-80
2022/01/18 07:10:53;;;;;;;34.08;19.45;;;;;;;5.73;100.00;101421.97;5072348;28;20581;-80
2022/01/18 07:13:19;;;;;;;33.20;19.85;;;;;;;5.64;100.00;101430.94;5071963;28;20189;-81
2022/01/18 07:15:47;;;;;;;34.42;19.42;;;;;;;5.83;100.00;101434.31;5071610;28;20203;-81
2022/01/18 07:18:14;;;;;;;37.60;21.48;;;;;;;5.81;100.00;101438.78;5057503;28;20214;-80
2022/01/18 07:20:41;;;;;;;38.53;20.25;;;;;;;5.40;100.00;101440.94;5051797;28;20608;-80
2022/01/18 07:23:11;;;;;;;36.65;20.00;;;;;;;5.57;100.00;101438.13;5051788;28;20596;-80
2022/01/18 07:25:42;;;;;;;37.15;19.50;;;;;;;5.64;100.00;101433.63;5051570;28;20692;-79
2022/01/18 07:28:08;;;;;;;41.08;21.02;;;;;;;5.71;100.00;101435.34;5051826;28;20186;-80
2022/01/18 07:30:35;;;;;;;36.83;21.83;;;;;;;5.79;100.00;101428.13;5051350;28;20203;-80
2022/01/18 07:33:03;;;;;;;30.48;18.77;;;;;;;5.87;100.00;101428.06;5051486;28;20547;-80
2022/01/18 07:35:32;;;;;;;39.53;19.88;;;;;;;5.84;100.00;101436.13;5051469;28;20226;-80
2022/01/18 07:38:00;;;;;;;37.28;20.83;;;;;;;5.96;100.00;101430.66;5051741;28;20187;-80
2022/01/18 07:40:27;;;;;;;36.75;19.55;;;;;;;5.84;100.00;101428.97;5051825;28;20619;-79
2022/01/18 07:42:54;;;;;;;43.38;23.65;;;;;;;6.00;100.00;101442.25;5051223;28;20186;-80
2022/01/18 07:45:21;;;;;;;35.88;20.52;;;;;;;6.01;100.00;101427.94;5051086;28;20204;-80
2022/01/18 07:47:48;;;;;;;38.70;22.58;;;;;;;5.95;100.00;101438.72;5065088;28;20235;-80
2022/01/18 07:50:16;;;;;;;35.17;20.80;;;;;;;6.03;100.00;101436.84;5071612;28;20189;-81
2022/01/18 07:52:43;;;;;;;33.55;19.58;;;;;;;6.10;100.00;101445.69;5071361;28;20201;-81
2022/01/18 07:55:11;;;;;;;32.20;18.65;;;;;;;6.18;100.00;101441.16;5071550;28;20323;-80
2022/01/18 07:57:41;;;;;;;38.90;20.88;;;;;;;6.23;100.00;101444.66;5071375;28;20230;-80
2022/01/18 08:00:09;;;;;;;35.60;19.92;;;;;;;6.38;100.00;101448.97;5071411;28;20186;-81
2022/01/18 08:02:36;;;;;;;28.17;17.45;;;;;;;6.42;100.00;101443.56;5071396;28;20635;-80
2022/01/18 08:05:03;;;;;;;30.33;17.58;;;;;;;6.52;100.00;101447.00;5075186;28;20282;-81
2022/01/18 08:07:31;;;;;;;35.78;19.52;;;;;;;6.34;100.00;101452.59;5074795;28;20224;-80
2022/01/18 08:09:58;;;;;;;31.05;18.90;;;;;;;6.57;100.00;101449.63;5075154;28;20186;-81
2022/01/18 08:12:25;;;;;;;31.20;18.27;;;;;;;6.67;100.00;101449.50;5075055;28;20735;-79
2022/01/18 08:14:54;;;;;;;31.05;18.10;;;;;;;6.81;100.00;101438.63;5075057;28;20712;-79
2022/01/18 08:17:22;;;;;;;26.80;16.10;;;;;;;7.06;100.00;101441.84;5064489;28;20202;-80
2022/01/18 08:19:49;;;;;;;29.17;16.75;;;;;;;6.83;100.00;101431.47;5054393;28;20233;-81
2022/01/18 08:22:16;;;;;;;26.23;15.70;;;;;;;6.96;100.00;101433.94;5054959;28;20187;-80
2022/01/18 08:24:44;;;;;;;34.83;15.20;;;;;;;6.81;100.00;101433.25;5054568;28;20609;-81
2022/01/18 08:27:11;;;;;;;23.92;15.07;;;;;;;6.76;100.00;101439.56;5054586;28;20256;-80
2022/01/18 08:29:38;;;;;;;26.90;16.13;;;;;;;6.77;100.00;101436.00;5054339;28;20189;-80
2022/01/18 08:32:06;;;;;;;28.27;15.55;;;;;;;6.54;100.00;101436.31;5054163;28;20292;-80
2022/01/18 08:34:33;;;;;;;25.75;15.10;;;;;;;6.61;100.00;101441.53;5054423;28;20229;-80
2022/01/18 08:37:00;;;;;;;26.23;16.35;;;;;;;6.76;100.00;101447.59;5054698;28;20303;-79
2022/01/18 08:39:27;;;;;;;24.55;15.18;;;;;;;7.02;100.00;101447.25;5054541;28;20284;-80
2022/01/18 08:41:55;;;;;;;24.67;15.40;;;;;;;7.03;100.00;101447.25;5054481;28;20287;-80
2022/01/18 08:44:22;;;;;;;27.40;15.73;;;;;;;6.85;100.00;101447.47;5054099;28;20210;-81
2022/01/18 08:46:49;;;;;;;27.33;17.85;;;;;;;6.97;100.00;101449.13;5054024;28;20292;-80
2022/01/18 08:49:16;;;;;;;24.60;15.90;;;;;;;6.83;100.00;101444.84;5056457;28;20210;-80
2022/01/18 08:51:42;;;;;;;25.08;15.80;;;;;;;6.78;100.00;101448.47;5054177;28;20627;-80
2022/01/18 08:54:09;;;;;;;27.98;15.20;;;;;;;6.92;100.00;101445.59;5054226;28;20706;-80
2022/01/18 08:56:35;;;;;;;28.67;15.82;;;;;;;6.79;100.00;101442.22;5053953;28;20232;-81
2022/01/18 08:59:04;;;;;;;29.15;19.17;;;;;;;6.75;100.00;101452.09;5053966;28;20237;-81
2022/01/18 09:01:30;;;;;;;28.55;14.90;;;;;;;6.42;100.00;101450.69;5054037;28;20218;-79
2022/01/18 09:03:57;;;;;;;29.90;15.98;;;;;;;6.47;100.00;101448.88;5053972;28;20208;-81
2022/01/18 09:06:25;;;;;;;28.48;16.60;;;;;;;6.70;100.00;101450.38;5053947;28;20645;-81
2022/01/18 09:08:55;;;;;;;26.40;15.10;;;;;;;7.00;100.00;101454.44;5053868;28;20193;-81
2022/01/18 09:11:23;;;;;;;27.02;16.05;;;;;;;7.19;100.00;101455.97;5053949;28;20218;-80
2022/01/18 09:13:50;;;;;;;25.85;16.50;;;;;;;7.19;100.00;101449.69;5053713;28;20216;-80
2022/01/18 09:16:18;;;;;;;27.83;14.38;;;;;;;7.30;100.00;101450.41;5053200;28;20286;-80
2022/01/18 09:18:45;;;;;;;23.67;14.25;;;;;;;7.13;100.00;101445.31;5060879;28;20288;-80
2022/01/18 09:21:12;;;;;;;27.42;15.18;;;;;;;7.07;100.00;101453.44;5073735;28;20693;-80
2022/01/18 09:23:39;;;;;;;28.50;15.10;;;;;;;7.11;100.00;101444.44;5073911;28;20196;-79
2022/01/18 09:26:06;;;;;;;26.08;16.05;;;;;;;6.98;100.00;101451.75;5072735;28;20198;-80
2022/01/18 09:28:33;;;;;;;28.10;15.70;;;;;;;7.11;100.00;101452.50;5073768;28;20257;-79
2022/01/18 09:31:00;;;;;;;26.35;14.20;;;;;;;7.22;100.00;101455.03;5073776;28;20663;-79
2022/01/18 09:33:28;;;;;;;27.20;14.07;;;;;;;7.53;100.00;101455.44;5073714;28;20665;-79
2022/01/18 09:35:55;;;;;;;23.35;14.55;;;;;;;7.80;100.00;101451.41;5073444;28;20577;-79
2022/01/18 09:38:22;;;;;;;24.30;16.73;;;;;;;7.88;100.00;101457.53;5073171;28;20229;-79
2022/01/18 09:40:48;;;;;;;26.38;15.27;;;;;;;7.75;100.00;101463.13;5073096;28;20210;-80
2022/01/18 09:43:16;;;;;;;20.80;13.23;;;;;;;7.33;100.00;101453.06;5072963;28;20287;-80
2022/01/18 09:45:44;;;;;;;21.25;13.40;;;;;;;7.08;100.00;101453.44;5073269;28;20183;-80
2022/01/18 09:48:12;;;;;;;20.70;12.82;;;;;;;7.09;100.00;101457.88;5071419;28;20289;-80
2022/01/18 09:50:42;;;;;;;20.63;12.95;;;;;;;7.01;100.00;101456.19;5071689;28;20256;-80
2022/01/18 09:53:11;;;;;;;21.88;13.25;;;;;;;7.23;100.00;101462.13;5073004;28;20198;-79
2022/01/18 09:55:39;;;;;;;18.75;12.00;;;;;;;7.20;100.00;101460.41;5073068;28;20928;-81
2022/01/18 09:58:07;;;;;;;21.10;11.55;;;;;;;6.98;100.00;101466.97;5072723;28;20287;-79
2022/01/18 10:00:37;;;;;;;24.23;12.93;;;;;;;6.99;100.00;101458.03;5073413;28;20555;-81
2022/01/18 10:03:07;;;;;;;18.05;12.38;;;;;;;7.01;100.00;101458.88;5072754;28;20714;-81
2022/01/18 10:05:35;;;;;;;21.10;12.48;;;;;;;6.96;100.00;101458.94;5073120;28;20185;-80
2022/01/18 10:08:08;;;;;;;21.17;13.45;;;;;;;6.94;100.00;101454.50;5072940;28;20289;-79
2022/01/18 10:10:40;;;;;;;21.05;12.95;;;;;;;7.00;100.00;101454.44;5072644;28;20219;-81
2022/01/18 10:13:08;;;;;;;21.25;11.65;;;;;;;7.14;100.00;101459.59;5073243;28;20926;-80
2022/01/18 10:15:35;;;;;;;25.98;13.20;;;;;;;7.39;100.00;101455.63;5072621;28;20307;-80
2022/01/18 10:18:07;;;;;;;22.40;12.68;;;;;;;7.50;100.00;101452.78;5066076;28;20605;-80
2022/01/18 10:20:49;;;;;;;20.05;10.70;;;;;;;7.42;100.00;101449.38;5053146;28;20250;-80
2022/01/18 10:23:23;;;;;;;18.73;11.00;;;;;;;7.59;100.00;101452.63;5052469;28;20233;-79
2022/01/18 10:25:50;;;;;;;17.73;11.60;;;;;;;7.52;100.00;101459.03;5052151;28;20208;-80
2022/01/18 10:28:31;;;;;;;20.05;12.27;;;;;;;7.32;100.00;101446.81;5051362;28;20294;-80
2022/01/18 10:31:01;;;;;;;22.27;12.77;;;;;;;7.32;100.00;101449.47;5052939;28;20316;-80
2022/01/18 10:33:28;;;;;;;18.10;11.23;;;;;;;7.21;100.00;101453.22;5052254;28;20206;-79
2022/01/18 10:36:11;;;;;;;24.40;12.40;;;;;;;7.36;100.00;101452.13;5052507;28;20212;-80
2022/01/18 10:38:41;;;;;;;24.92;11.90;;;;;;;7.50;100.00;101444.75;5051852;28;20195;-80
2022/01/18 10:41:27;;;;;;;24.30;11.38;;;;;;;7.59;100.00;101443.72;5052619;28;20186;-80
2022/01/18 10:44:06;;;;;;;20.38;12.43;;;;;;;7.52;100.00;101438.44;5052644;28;20189;-80
2022/01/18 10:46:40;;;;;;;19.08;11.25;;;;;;;7.56;100.00;101433.94;5051932;28;20198;-79
2022/01/18 10:49:08;;;;;;;20.48;12.38;;;;;;;7.59;100.00;101431.19;5061853;28;20197;-79
2022/01/18 10:51:36;;;;;;;19.70;11.88;;;;;;;7.39;100.00;101422.59;5072220;28;20240;-80
2022/01/18 10:54:07;;;;;;;23.10;12.65;;;;;;;7.35;100.00;101415.50;5072273;28;20245;-80
2022/01/18 10:56:42;;;;;;;17.98;10.10;;;;;;;7.53;100.00;101412.56;5071927;28;20219;-80
2022/01/18 10:59:20;;;;;;;20.55;10.95;;;;;;;7.47;100.00;101416.19;5072127;28;20703;-80
2022/01/18 11:01:47;;;;;;;18.85;9.45;;;;;;;7.12;100.00;101410.50;5072098;28;20192;-80
2022/01/18 11:04:16;;;;;;;17.05;10.10;;;;;;;7.36;100.00;101414.63;5072141;28;20192;-78
2022/01/18 11:06:59;;;;;;;13.20;8.82;;;;;;;7.55;100.00;101410.69;5071471;28;20203;-80
2022/01/18 11:09:27;;;;;;;16.55;9.45;;;;;;;7.82;100.00;101398.59;5071902;28;20211;-80
2022/01/18 11:11:54;;;;;;;17.75;10.60;;;;;;;7.84;100.00;101399.47;5072029;28;20204;-80
2022/01/18 11:14:22;;;;;;;14.93;10.38;;;;;;;7.82;100.00;101398.59;5072112;28;20197;-80
2022/01/18 11:16:50;;;;;;;14.25;10.38;;;;;;;8.04;100.00;101393.75;5072088;28;20917;-80
2022/01/18 11:19:30;;;;;;;12.77;7.68;;;;;;;7.95;100.00;101388.56;5052048;28;20222;-81
2022/01/18 11:21:59;;;;;;;14.60;8.02;;;;;;;7.94;100.00;101392.16;5051795;28;20630;-80
2022/01/18 11:24:29;;;;;;;13.52;8.45;;;;;;;8.14;100.00;101395.34;5051412;28;20233;-80
2022/01/18 11:26:57;;;;;;;18.23;8.70;;;;;;;8.23;100.00;101396.97;5051854;28;20202;-80
2022/01/18 11:29:25;;;;;;;14.23;8.93;;;;;;;8.25;100.00;101396.91;5051414;28;20198;-80
2022/01/18 11:31:54;;;;;;;17.92;9.23;;;;;;;8.29;99.55;101394.13;5052029;28;20698;-79
2022/01/18 11:34:30;;;;;;;18.05;8.95;;;;;;;8.53;99.80;101399.97;5051773;28;20194;-80
2022/01/18 11:37:05;;;;;;;13.68;8.30;;;;;;;8.49;98.85;101384.84;5051218;28;20208;-80
2022/01/18 11:39:33;;;;;;;14.45;8.23;;;;;;;8.37;97.15;101388.63;5054833;28;20208;-80
2022/01/18 11:42:08;;;;;;;15.95;9.30;;;;;;;8.35;98.57;101385.09;5055694;28;20240;-80
2022/01/18 11:44:35;;;;;;;14.70;8.80;;;;;;;8.36;98.36;101390.41;5056061;28;20243;-79
2022/01/18 11:47:04;;;;;;;16.55;9.80;;;;;;;8.67;98.61;101395.19;5055533;28;20284;-80
2022/01/18 11:49:33;;;;;;;17.50;10.60;;;;;;;8.92;96.10;101394.63;5063696;28;20619;-80
2022/01/18 11:52:03;;;;;;;17.55;9.52;;;;;;;8.93;93.46;101397.31;5075821;28;20201;-80
2022/01/18 11:54:44;;;;;;;16.33;10.18;;;;;;;8.86;94.31;101389.41;5075440;28;20273;-79
2022/01/18 11:57:35;;;;;;;18.55;8.73;;;;;;;8.69;93.33;101379.03;5075221;28;20233;-79
2022/01/18 12:00:24;;;;;;;15.13;8.50;;;;;;;8.05;97.01;101376.75;5075332;28;20192;-80